MMMX/MEX METAR and TAF weather

Enter ICAO airport designator
Station Type Date Time Source
MMMX METAR 2019/04/20 22:45 UTC NOAA

MMMX 202245Z 04010KT 8SM FEW020 26/M03 A3025 NOSIG RMK 8/100 HZY


Station Type Date Time Source
MMMX Decoded METAR 2019/04/20 22:45 UTC NOAA

Mexico City / Licenci, Mexico (MMMX) 19-26N 099-06W
Apr 20, 2019 - 06:45 PM EDT / 2019.04.20 2245 UTC
Wind: from the NE (040 degrees) at 12 MPH (10 KT):0
Visibility: 8 mile(s):0
Sky conditions: mostly clear
Temperature: 78 F (26 C)
Dew Point: 26 F (-3 C)
Relative Humidity: 14%
Pressure (altimeter): 30.25 in. Hg (1024 hPa)
ob: MMMX 202245Z 04010KT 8SM FEW020 26/M03 A3025 NOSIG RMK 8/100 HZY
cycle: 23

Station Type Date Time Source
MMMX TAF 2019/04/20 18:57 UTC NOAA

TAF COR TAF COR MMMX 201656Z 2018/2124 12010KT P6SM SCT020 TX26/2020Z TN12/2112Z
FM202100 14015KT P6SM BKN020
FM210300 00000KT P6SM SCT015
FM211700 20010KT P6SM SCT030

Example: see airport list